Time;durP1;ratioP1;P1;durP2;ratioP2;P2;SDS_P1;SDS_P2;PMS_P1;PMS_P2;Temp;Humidity;BMP_temperature;BMP_pressure;BME280_temperature;BME280_humidity;BME280_pressure;Samples;Min_cycle;Max_cycle;Signal;HPM_P1;HPM_P2
2023/04/30 00:01:49;;;;;;;14.23;11.57;;;8.40;99.90;;;;;;5032551;28;20699;-64
2023/04/30 00:04:15;;;;;;;16.63;12.33;;;8.30;99.90;;;;;;5032655;28;20230;-65
2023/04/30 00:06:40;;;;;;;13.17;10.97;;;8.30;99.90;;;;;;5032053;28;20210;-65
2023/04/30 00:09:06;;;;;;;16.17;11.10;;;8.20;99.90;;;;;;5032093;28;20246;-64
2023/04/30 00:11:32;;;;;;;13.07;11.73;;;8.20;99.90;;;;;;5031905;28;20584;-64
2023/04/30 00:13:57;;;;;;;12.53;11.13;;;8.10;99.90;;;;;;5032063;28;20180;-64
2023/04/30 00:16:23;;;;;;;13.57;12.37;;;8.10;99.90;;;;;;5032357;28;20179;-64
2023/04/30 00:18:49;;;;;;;13.87;12.37;;;8.00;99.90;;;;;;5031978;28;20278;-64
2023/04/30 00:21:14;;;;;;;13.03;11.77;;;8.00;99.90;;;;;;5031808;28;20634;-65
2023/04/30 00:23:40;;;;;;;19.27;13.20;;;8.00;99.90;;;;;;5031178;28;20258;-65
2023/04/30 00:26:05;;;;;;;13.43;12.07;;;8.00;99.90;;;;;;5032112;28;20206;-65
2023/04/30 00:28:31;;;;;;;13.77;12.20;;;7.90;99.90;;;;;;5031821;28;20234;-65
2023/04/30 00:30:57;;;;;;;14.07;12.00;;;7.80;99.90;;;;;;5031599;28;20526;-65
2023/04/30 00:33:22;;;;;;;15.40;12.37;;;7.80;99.90;;;;;;5031843;28;20186;-65
2023/04/30 00:35:48;;;;;;;13.73;11.73;;;7.70;99.90;;;;;;5031650;28;20192;-65
2023/04/30 00:38:13;;;;;;;12.53;11.37;;;7.70;99.90;;;;;;5031820;28;20592;-65
2023/04/30 00:40:40;;;;;;;16.33;13.27;;;7.70;99.90;;;;;;5031234;28;20210;-65
2023/04/30 00:43:06;;;;;;;14.13;12.77;;;7.60;99.90;;;;;;5031836;28;20175;-64
2023/04/30 00:45:31;;;;;;;13.10;12.00;;;7.60;99.90;;;;;;5031324;28;20218;-64
2023/04/30 00:47:57;;;;;;;13.80;12.17;;;7.60;99.90;;;;;;5031836;28;20590;-65
2023/04/30 00:50:23;;;;;;;12.70;11.37;;;7.60;99.90;;;;;;5031324;28;20183;-65
2023/04/30 00:52:49;;;;;;;13.17;11.87;;;7.50;99.90;;;;;;5031623;28;20187;-65
2023/04/30 00:55:15;;;;;;;12.80;11.57;;;7.50;99.90;;;;;;5031219;28;20199;-65
2023/04/30 00:57:41;;;;;;;12.97;11.63;;;7.50;99.90;;;;;;5031734;28;20560;-64
2023/04/30 01:00:10;;;;;;;13.27;11.87;;;7.40;99.90;;;;;;5031128;28;20187;-65
2023/04/30 01:02:37;;;;;;;14.67;12.43;;;7.30;99.90;;;;;;5031694;28;20182;-65
2023/04/30 01:05:03;;;;;;;13.37;12.03;;;7.30;99.90;;;;;;5031098;28;20306;-65
2023/04/30 01:07:30;;;;;;;15.83;11.10;;;7.30;99.90;;;;;;5031333;28;20271;-64
2023/04/30 01:09:56;;;;;;;15.20;11.50;;;7.20;99.90;;;;;;5031134;28;20752;-64
2023/04/30 01:12:28;;;;;;;12.67;10.13;;;7.20;99.90;;;;;;5031468;28;20297;-64
2023/04/30 01:15:07;;;;;;;18.70;10.27;;;7.10;99.90;;;;;;5031104;28;20207;-64
2023/04/30 01:17:40;;;;;;;11.70;10.57;;;7.10;99.90;;;;;;5031297;28;20582;-64
2023/04/30 01:20:08;;;;;;;11.60;10.27;;;7.00;99.90;;;;;;5030974;28;20175;-65
2023/04/30 01:23:03;;;;;;;11.27;9.93;;;7.00;99.90;;;;;;5031237;28;20183;-65
2023/04/30 01:26:03;;;;;;;12.50;10.87;;;6.90;99.90;;;;;;5030904;28;20227;-65
2023/04/30 01:28:29;;;;;;;17.67;10.43;;;6.80;99.90;;;;;;5026923;28;20284;-65
2023/04/30 01:30:55;;;;;;;17.57;10.73;;;6.80;99.90;;;;;;5030505;28;20298;-64
2023/04/30 01:33:20;;;;;;;15.83;9.57;;;6.80;99.90;;;;;;5031280;28;20592;-65
2023/04/30 01:35:52;;;;;;;14.60;11.20;;;6.70;99.90;;;;;;5035146;28;20179;-65
2023/04/30 01:38:20;;;;;;;10.60;9.57;;;6.70;99.90;;;;;;5035057;28;20199;-65
2023/04/30 01:41:08;;;;;;;12.30;11.00;;;6.70;99.90;;;;;;5034781;28;20179;-65
2023/04/30 01:43:55;;;;;;;12.17;11.07;;;6.60;99.90;;;;;;5035152;28;20258;-65
2023/04/30 01:46:27;;;;;;;13.67;9.77;;;6.60;99.90;;;;;;5034877;28;20211;-64
2023/04/30 01:49:17;;;;;;;15.53;12.17;;;6.50;99.90;;;;;;5035024;28;20198;-65
2023/04/30 01:51:47;;;;;;;11.27;10.20;;;6.50;99.90;;;;;;5034833;28;20172;-65
2023/04/30 01:54:24;;;;;;;10.47;9.47;;;6.50;99.90;;;;;;5035022;28;20171;-65
2023/04/30 01:57:37;;;;;;;14.47;10.83;;;6.40;99.90;;;;;;5015045;28;20668;-65
2023/04/30 02:00:03;;;;;;;12.77;11.07;;;6.40;99.90;;;;;;5033725;28;20298;-64
2023/04/30 02:02:29;;;;;;;13.23;9.20;;;6.40;99.90;;;;;;5034820;28;20187;-64
2023/04/30 02:04:55;;;;;;;12.80;11.43;;;6.40;99.90;;;;;;5034634;28;20218;-64
2023/04/30 02:07:41;;;;;;;16.27;11.07;;;6.40;99.90;;;;;;5034543;28;20608;-64
2023/04/30 02:10:07;;;;;;;11.50;10.43;;;6.40;99.90;;;;;;5034276;28;20253;-64
2023/04/30 02:12:34;;;;;;;11.00;9.90;;;6.30;99.90;;;;;;5034569;28;20182;-64
2023/04/30 02:14:59;;;;;;;11.97;10.73;;;6.30;99.90;;;;;;5034422;28;20198;-64
2023/04/30 02:17:25;;;;;;;11.37;10.37;;;6.20;99.90;;;;;;5034500;28;20176;-64
2023/04/30 02:19:51;;;;;;;12.40;10.83;;;6.20;99.90;;;;;;5033717;28;20211;-65
2023/04/30 02:22:16;;;;;;;12.17;10.27;;;6.20;99.90;;;;;;5034466;28;20551;-64
2023/04/30 02:24:42;;;;;;;45.60;28.10;;;6.20;99.90;;;;;;5033970;28;20557;-66
2023/04/30 02:27:07;;;;;;;27.13;18.10;;;6.10;99.90;;;;;;5034375;28;20195;-64
2023/04/30 02:29:33;;;;;;;17.67;12.93;;;6.10;99.90;;;;;;5033606;28;20671;-64
2023/04/30 02:31:59;;;;;;;11.37;10.27;;;6.10;99.90;;;;;;5034256;28;20225;-65
2023/04/30 02:34:25;;;;;;;14.63;12.43;;;6.20;99.90;;;;;;5034147;28;20549;-64
2023/04/30 02:36:50;;;;;;;12.50;11.20;;;6.20;99.90;;;;;;5034119;28;20180;-65
2023/04/30 02:39:16;;;;;;;16.17;12.73;;;6.20;99.90;;;;;;5033612;28;20620;-65
2023/04/30 02:41:42;;;;;;;13.50;11.93;;;6.20;99.90;;;;;;5034083;28;20187;-65
2023/04/30 02:44:07;;;;;;;12.30;11.03;;;6.20;99.90;;;;;;5033941;28;20712;-64
2023/04/30 02:46:33;;;;;;;14.63;11.73;;;6.20;99.90;;;;;;5033177;28;20672;-64
2023/04/30 02:48:59;;;;;;;17.67;11.77;;;6.20;99.90;;;;;;5033771;28;20195;-64
2023/04/30 02:51:24;;;;;;;13.27;10.03;;;6.20;99.90;;;;;;5033590;28;20504;-65
2023/04/30 02:53:50;;;;;;;14.80;10.07;;;6.10;99.90;;;;;;5033605;28;20633;-65
2023/04/30 02:56:16;;;;;;;11.43;10.20;;;6.10;99.90;;;;;;5033920;28;20175;-65
2023/04/30 02:58:41;;;;;;;11.47;10.27;;;6.00;99.90;;;;;;5033422;28;20218;-64
2023/04/30 03:01:07;;;;;;;12.13;10.93;;;6.00;99.90;;;;;;5022347;28;20617;-64
2023/04/30 03:03:33;;;;;;;11.27;10.03;;;5.90;99.90;;;;;;5033589;28;20175;-65
2023/04/30 03:05:58;;;;;;;9.87;8.77;;;5.90;99.90;;;;;;5033398;28;20265;-65
2023/04/30 03:08:25;;;;;;;12.17;11.00;;;5.80;99.90;;;;;;5033748;28;20227;-64
2023/04/30 03:10:51;;;;;;;15.03;12.17;;;5.70;99.90;;;;;;5033021;28;20183;-64
2023/04/30 03:13:16;;;;;;;12.90;11.57;;;5.70;99.90;;;;;;5033517;28;20172;-65
2023/04/30 03:15:42;;;;;;;10.40;9.50;;;5.70;99.90;;;;;;5033327;28;20526;-64
2023/04/30 03:18:09;;;;;;;12.30;11.00;;;5.70;99.90;;;;;;5033564;28;20199;-65
2023/04/30 03:20:34;;;;;;;13.43;11.83;;;5.70;99.90;;;;;;5032240;28;20175;-65
2023/04/30 03:23:00;;;;;;;12.63;10.83;;;5.70;99.90;;;;;;5033182;28;20591;-65
2023/04/30 03:25:26;;;;;;;11.70;10.50;;;5.70;99.90;;;;;;5033371;28;20290;-65
2023/04/30 03:27:51;;;;;;;12.37;11.20;;;5.70;99.90;;;;;;5033159;28;20554;-65
2023/04/30 03:30:17;;;;;;;11.53;10.40;;;5.70;99.90;;;;;;5033298;28;20211;-65
2023/04/30 03:32:42;;;;;;;12.37;11.20;;;5.70;99.90;;;;;;5033088;28;20182;-65
2023/04/30 03:35:08;;;;;;;11.43;10.23;;;5.60;99.90;;;;;;5032880;28;20179;-64
2023/04/30 03:37:34;;;;;;;13.43;11.50;;;5.60;99.90;;;;;;5032685;28;20527;-65
2023/04/30 03:39:59;;;;;;;15.07;10.80;;;5.50;99.90;;;;;;5032556;28;20218;-65
2023/04/30 03:42:25;;;;;;;15.13;11.07;;;5.50;99.90;;;;;;5032779;28;20179;-65
2023/04/30 03:44:50;;;;;;;11.87;10.67;;;5.50;99.90;;;;;;5032872;28;20637;-65
2023/04/30 03:47:16;;;;;;;16.47;11.37;;;5.50;99.90;;;;;;5032599;28;20187;-65
2023/04/30 03:49:42;;;;;;;11.97;10.70;;;5.50;99.90;;;;;;5032238;28;20598;-65
2023/04/30 03:52:07;;;;;;;12.40;10.20;;;5.50;99.90;;;;;;5032582;28;20530;-65
2023/04/30 03:54:33;;;;;;;11.87;10.13;;;5.60;99.90;;;;;;5032751;28;20187;-65
2023/04/30 03:57:02;;;;;;;13.00;10.50;;;5.60;99.90;;;;;;5031975;28;20252;-65
2023/04/30 03:59:28;;;;;;;14.63;10.67;;;5.50;99.90;;;;;;5012288;28;20203;-65
2023/04/30 04:01:54;;;;;;;11.67;10.47;;;5.60;99.90;;;;;;5012836;28;20255;-65
2023/04/30 04:04:20;;;;;;;10.97;9.87;;;5.50;99.90;;;;;;5031158;28;20630;-65
2023/04/30 04:06:45;;;;;;;16.00;11.03;;;5.50;99.90;;;;;;5032294;28;20294;-65
2023/04/30 04:09:11;;;;;;;13.07;10.80;;;5.40;99.90;;;;;;5031936;28;20242;-64
2023/04/30 04:11:37;;;;;;;11.97;10.60;;;5.40;99.90;;;;;;5032151;28;20255;-65
2023/04/30 04:14:02;;;;;;;12.73;11.47;;;5.30;99.90;;;;;;5032173;28;20324;-65
2023/04/30 04:16:28;;;;;;;15.97;11.43;;;5.30;99.90;;;;;;5032464;28;20237;-65
2023/04/30 04:18:54;;;;;;;13.37;11.27;;;5.30;99.90;;;;;;5030668;28;20211;-65
2023/04/30 04:21:19;;;;;;;12.40;11.13;;;5.30;99.90;;;;;;5031885;28;20656;-64
2023/04/30 04:23:45;;;;;;;14.63;13.13;;;5.30;99.90;;;;;;5031948;28;20200;-65
2023/04/30 04:26:11;;;;;;;14.27;12.00;;;5.30;99.90;;;;;;5031402;28;20595;-65
2023/04/30 04:28:37;;;;;;;12.93;10.63;;;5.30;99.90;;;;;;5031306;28;20215;-64
2023/04/30 04:31:03;;;;;;;13.00;11.63;;;5.40;99.90;;;;;;5031736;28;20176;-65
2023/04/30 04:33:29;;;;;;;12.30;11.00;;;5.40;99.90;;;;;;5031560;28;20634;-65
2023/04/30 04:35:56;;;;;;;13.23;11.23;;;5.40;99.90;;;;;;5031888;28;20321;-65
2023/04/30 04:38:22;;;;;;;13.30;11.90;;;5.60;99.90;;;;;;5030564;28;20574;-65
2023/04/30 04:40:55;;;;;;;15.50;11.33;;;5.70;99.90;;;;;;5031432;28;20183;-65
2023/04/30 04:43:21;;;;;;;14.13;11.27;;;5.80;99.90;;;;;;5031607;28;20183;-65
2023/04/30 04:45:47;;;;;;;12.00;10.83;;;6.00;99.90;;;;;;5031629;28;20207;-64
2023/04/30 04:48:13;;;;;;;12.53;11.23;;;6.00;99.90;;;;;;5031660;28;20234;-65
2023/04/30 04:50:38;;;;;;;14.40;10.37;;;6.10;99.90;;;;;;5029559;28;20198;-65
2023/04/30 04:53:04;;;;;;;12.40;10.83;;;6.10;99.90;;;;;;5031492;28;20175;-64
2023/04/30 04:55:30;;;;;;;12.90;11.00;;;6.20;99.90;;;;;;5031516;28;20175;-65
2023/04/30 04:57:56;;;;;;;12.10;11.00;;;6.20;99.90;;;;;;5031665;28;20673;-65
2023/04/30 05:00:22;;;;;;;14.13;11.20;;;6.30;99.90;;;;;;5030583;28;20222;-65
2023/04/30 05:02:48;;;;;;;17.40;10.87;;;6.30;99.90;;;;;;5031492;28;20619;-65
2023/04/30 05:05:14;;;;;;;12.60;10.07;;;6.30;99.90;;;;;;5031248;28;20563;-65
2023/04/30 05:07:40;;;;;;;13.73;11.30;;;6.40;99.90;;;;;;5031165;28;20202;-65
2023/04/30 05:10:06;;;;;;;15.77;12.10;;;6.50;99.90;;;;;;5030640;28;20241;-65
2023/04/30 05:12:32;;;;;;;11.90;10.90;;;6.50;99.90;;;;;;5031380;28;20669;-65
2023/04/30 05:14:58;;;;;;;11.57;10.43;;;6.60;99.90;;;;;;5031225;28;20188;-65
2023/04/30 05:17:24;;;;;;;17.20;11.67;;;6.60;99.90;;;;;;5031463;28;20171;-65
2023/04/30 05:19:50;;;;;;;13.87;11.43;;;6.70;99.90;;;;;;5030749;28;20257;-65
2023/04/30 05:22:16;;;;;;;13.63;10.73;;;6.80;99.90;;;;;;5031248;28;20221;-64
2023/04/30 05:24:41;;;;;;;23.53;12.67;;;6.90;99.90;;;;;;5031163;28;20730;-65
2023/04/30 05:27:07;;;;;;;12.60;11.33;;;7.00;99.90;;;;;;5031198;28;20580;-64
2023/04/30 05:29:33;;;;;;;15.63;11.40;;;7.10;99.90;;;;;;5030474;28;20688;-65
2023/04/30 05:31:59;;;;;;;15.57;11.83;;;7.10;99.90;;;;;;5031585;28;20174;-64
2023/04/30 05:34:24;;;;;;;14.10;12.67;;;7.20;99.90;;;;;;5030969;28;20179;-65
2023/04/30 05:36:50;;;;;;;17.73;13.13;;;7.30;99.90;;;;;;5029982;28;20211;-65
2023/04/30 05:39:16;;;;;;;14.77;12.07;;;7.40;99.90;;;;;;5031062;28;20191;-64
2023/04/30 05:41:41;;;;;;;13.27;11.90;;;7.50;99.90;;;;;;5030946;28;20542;-65
2023/04/30 05:44:07;;;;;;;14.13;12.10;;;7.70;99.90;;;;;;5030953;28;20198;-65
2023/04/30 05:46:34;;;;;;;17.07;12.87;;;7.90;99.90;;;;;;5031169;28;20195;-65
2023/04/30 05:48:59;;;;;;;14.53;13.03;;;8.20;99.90;;;;;;5030441;28;20191;-65
2023/04/30 05:51:26;;;;;;;16.00;13.53;;;8.40;99.90;;;;;;5029907;28;20176;-64
2023/04/30 05:53:52;;;;;;;14.37;12.87;;;8.50;99.90;;;;;;5030967;28;20167;-65
2023/04/30 05:56:18;;;;;;;15.07;13.23;;;8.50;99.90;;;;;;5030841;28;20257;-64
2023/04/30 05:58:43;;;;;;;18.13;13.43;;;8.70;99.90;;;;;;5030610;28;20199;-65
2023/04/30 06:01:10;;;;;;;22.13;14.17;;;8.80;99.90;;;;;;5030711;28;20262;-65
2023/04/30 06:03:36;;;;;;;19.53;12.63;;;9.00;99.90;;;;;;5030932;28;20646;-65
2023/04/30 06:06:02;;;;;;;17.30;13.50;;;9.20;99.90;;;;;;5030646;28;20250;-65
2023/04/30 06:08:28;;;;;;;19.10;13.00;;;9.40;99.90;;;;;;5029172;28;20233;-64
2023/04/30 06:10:54;;;;;;;17.23;13.00;;;9.70;99.90;;;;;;5029954;28;20207;-65
2023/04/30 06:13:20;;;;;;;17.80;12.57;;;10.00;99.90;;;;;;5030438;28;20218;-66
2023/04/30 06:15:45;;;;;;;17.83;14.00;;;10.40;99.90;;;;;;5030166;28;20191;-66
2023/04/30 06:18:13;;;;;;;20.60;15.17;;;10.90;99.90;;;;;;5030771;28;20203;-65
2023/04/30 06:20:38;;;;;;;25.63;14.17;;;11.70;99.90;;;;;;5030655;28;20673;-65
2023/04/30 06:23:04;;;;;;;19.23;14.20;;;12.20;99.90;;;;;;5034471;28;20390;-66
2023/04/30 06:25:30;;;;;;;16.87;11.63;;;12.70;99.90;;;;;;5033703;28;20214;-65
2023/04/30 06:27:55;;;;;;;18.63;11.67;;;12.80;99.90;;;;;;5034330;28;20300;-66
2023/04/30 06:30:21;;;;;;;11.73;10.30;;;12.80;99.90;;;;;;5033924;28;20176;-65
2023/04/30 06:32:47;;;;;;;13.23;11.10;;;13.10;99.90;;;;;;5033799;28;20183;-65
2023/04/30 06:35:14;;;;;;;13.10;10.53;;;13.50;99.90;;;;;;5033955;28;20192;-66
2023/04/30 06:37:39;;;;;;;9.93;8.93;;;14.10;99.90;;;;;;5033972;28;20199;-66
2023/04/30 06:40:06;;;;;;;9.10;8.20;;;14.70;99.90;;;;;;5033705;28;20261;-65
2023/04/30 06:42:35;;;;;;;9.77;8.20;;;15.40;99.90;;;;;;5033285;28;20245;-66
2023/04/30 06:45:02;;;;;;;12.20;8.23;;;15.90;99.90;;;;;;5033807;28;20631;-66
2023/04/30 06:47:33;;;;;;;9.03;8.13;;;16.50;99.90;;;;;;5032847;28;20177;-65
2023/04/30 06:49:59;;;;;;;8.23;7.40;;;16.80;99.90;;;;;;5033462;28;20179;-65
2023/04/30 06:52:25;;;;;;;10.73;8.77;;;17.10;99.90;;;;;;5033835;28;20170;-66
2023/04/30 06:54:51;;;;;;;9.40;7.43;;;17.40;99.90;;;;;;5033460;28;20210;-65
2023/04/30 06:57:16;;;;;;;8.18;7.38;;;18.00;99.90;;;;;;5033805;28;20677;-65
2023/04/30 06:59:43;;;;;;;9.38;7.25;;;18.10;99.90;;;;;;5032757;28;20731;-66
2023/04/30 07:02:08;;;;;;;9.43;7.63;;;18.50;99.90;;;;;;5033756;28;20217;-65
2023/04/30 07:04:34;;;;;;;9.13;7.47;;;18.70;99.90;;;;;;5033290;28;20171;-65
2023/04/30 07:07:03;;;;;;;7.63;6.93;;;18.80;99.90;;;;;;5033544;28;20230;-66
2023/04/30 07:09:29;;;;;;;7.77;7.00;;;18.70;99.90;;;;;;5032822;28;20195;-66
2023/04/30 07:11:54;;;;;;;7.68;6.95;;;18.80;99.90;;;;;;5033361;28;20588;-66
2023/04/30 07:14:20;;;;;;;8.88;8.05;;;18.80;99.90;;;;;;5033141;28;20176;-66
2023/04/30 07:16:48;;;;;;;8.40;7.30;;;18.80;99.90;;;;;;5033265;28;20332;-65
2023/04/30 07:19:14;;;;;;;10.57;7.80;;;19.00;99.90;;;;;;5032786;28;20230;-65
2023/04/30 07:21:40;;;;;;;9.75;8.45;;;18.90;99.90;;;;;;5033293;28;20214;-66
2023/04/30 07:24:05;;;;;;;9.20;8.18;;;19.10;99.90;;;;;;5033097;28;20179;-66
2023/04/30 07:26:31;;;;;;;8.25;7.45;;;19.20;99.90;;;;;;5032664;28;20214;-66
2023/04/30 07:28:56;;;;;;;8.38;7.57;;;19.30;99.90;;;;;;5032720;28;20207;-65
2023/04/30 07:31:22;;;;;;;8.18;7.35;;;19.50;99.90;;;;;;5032442;28;20645;-66
2023/04/30 07:33:49;;;;;;;9.95;8.35;;;19.90;99.90;;;;;;5032154;28;20179;-66
2023/04/30 07:36:15;;;;;;;8.30;7.25;;;20.20;99.90;;;;;;5033105;28;20179;-65
2023/04/30 07:38:41;;;;;;;8.35;7.55;;;20.40;99.90;;;;;;5032648;28;20207;-66
2023/04/30 07:41:08;;;;;;;9.45;7.20;;;20.60;99.90;;;;;;5031611;28;20172;-65
2023/04/30 07:43:36;;;;;;;8.25;7.45;;;20.50;99.90;;;;;;5032482;28;20183;-66
2023/04/30 07:46:02;;;;;;;8.57;6.75;;;20.60;99.90;;;;;;5034478;28;20669;-66
2023/04/30 07:48:28;;;;;;;7.97;6.85;;;21.00;99.90;;;;;;5032909;28;20209;-65
2023/04/30 07:50:55;;;;;;;8.93;7.10;;;21.10;99.90;;;;;;5032304;28;20254;-65
2023/04/30 07:53:21;;;;;;;7.47;6.70;;;21.20;99.90;;;;;;5033464;28;20163;-65
2023/04/30 07:55:47;;;;;;;9.32;7.20;;;21.60;99.90;;;;;;5032299;28;20189;-66
2023/04/30 07:58:13;;;;;;;8.48;7.10;;;22.20;99.90;;;;;;5033138;28;20199;-66
2023/04/30 08:00:38;;;;;;;8.57;7.20;;;22.30;99.90;;;;;;5032084;28;20637;-66
2023/04/30 08:03:04;;;;;;;8.40;7.22;;;22.40;99.90;;;;;;5032559;28;20171;-65
2023/04/30 08:05:29;;;;;;;8.05;7.32;;;22.70;99.90;;;;;;5031990;28;20309;-65
2023/04/30 08:07:55;;;;;;;7.80;7.00;;;23.10;99.90;;;;;;5032194;28;20278;-63
2023/04/30 08:10:21;;;;;;;10.10;7.72;;;23.00;99.90;;;;;;5031754;28;20171;-63
2023/04/30 08:12:46;;;;;;;7.85;6.72;;;23.20;99.90;;;;;;5032296;28;20255;-63
2023/04/30 08:15:12;;;;;;;9.13;7.25;;;23.50;99.90;;;;;;5029629;28;20211;-63
2023/04/30 08:17:37;;;;;;;9.10;7.20;;;23.60;99.90;;;;;;5031873;28;20631;-62
2023/04/30 08:20:04;;;;;;;7.32;6.72;;;23.50;99.90;;;;;;5031516;28;20591;-66
2023/04/30 08:22:30;;;;;;;8.43;7.63;;;23.50;99.90;;;;;;5031947;28;20258;-65
2023/04/30 08:24:55;;;;;;;8.18;6.75;;;23.60;99.90;;;;;;5031647;28;20321;-66
2023/04/30 08:27:22;;;;;;;8.32;6.75;;;23.70;99.90;;;;;;5031976;28;20221;-66
2023/04/30 08:29:47;;;;;;;7.45;6.75;;;23.80;99.90;;;;;;5029844;28;20213;-66
2023/04/30 08:32:13;;;;;;;7.43;6.72;;;23.90;99.90;;;;;;5030627;28;20175;-63
2023/04/30 08:34:42;;;;;;;7.97;6.50;;;23.80;99.90;;;;;;5031798;28;20254;-63
2023/04/30 08:37:08;;;;;;;6.85;6.20;;;23.50;99.90;;;;;;5031643;28;20202;-64
2023/04/30 08:39:33;;;;;;;8.25;7.43;;;23.70;99.90;;;;;;5031014;28;20678;-62
2023/04/30 08:42:02;;;;;;;8.10;7.15;;;24.20;99.90;;;;;;5031681;28;20743;-63
2023/04/30 08:44:29;;;;;;;8.10;6.70;;;24.00;99.90;;;;;;5030011;28;20178;-63
2023/04/30 08:46:57;;;;;;;9.05;6.05;;;24.50;99.90;;;;;;5028160;28;20260;-63
2023/04/30 08:49:24;;;;;;;6.38;5.78;;;25.30;99.90;;;;;;5028014;28;20191;-64
2023/04/30 08:51:50;;;;;;;6.93;6.03;;;26.30;99.90;;;;;;5024208;28;20520;-63
2023/04/30 08:54:18;;;;;;;8.10;6.43;;;26.40;99.90;;;;;;5023309;28;20189;-63
2023/04/30 08:56:46;;;;;;;7.35;6.28;;;26.40;99.90;;;;;;5027269;28;20531;-63
2023/04/30 08:59:13;;;;;;;7.90;5.82;;;26.10;99.90;;;;;;5028259;28;20198;-62
2023/04/30 09:01:39;;;;;;;5.82;5.28;;;26.40;99.90;;;;;;5028026;28;20699;-62
2023/04/30 09:04:05;;;;;;;5.35;4.85;;;26.70;99.90;;;;;;5028272;28;20552;-63
2023/04/30 09:06:31;;;;;;;5.63;5.00;;;26.80;99.90;;;;;;5026806;28;20677;-63
2023/04/30 09:09:13;;;;;;;7.63;5.57;;;26.50;99.90;;;;;;5028121;28;20286;-62
2023/04/30 09:11:40;;;;;;;5.85;5.30;;;26.20;99.90;;;;;;5028176;28;20616;-63
2023/04/30 09:14:07;;;;;;;7.28;5.90;;;26.20;99.90;;;;;;5028513;28;20186;-63
2023/04/30 09:16:50;;;;;;;6.13;4.65;;;26.20;99.90;;;;;;5028076;28;20175;-66
2023/04/30 09:19:26;;;;;;;5.03;4.53;;;26.30;99.90;;;;;;5027693;28;20207;-65
2023/04/30 09:21:52;;;;;;;5.97;5.32;;;26.30;99.90;;;;;;5027210;28;20588;-66
2023/04/30 09:24:18;;;;;;;4.53;4.10;;;26.50;99.90;;;;;;5028084;28;20317;-63
2023/04/30 09:26:48;;;;;;;4.82;4.30;;;26.10;99.90;;;;;;5028092;28;20294;-65
2023/04/30 09:29:14;;;;;;;4.30;3.88;;;25.40;99.90;;;;;;5026866;28;20253;-65
2023/04/30 09:31:43;;;;;;;4.10;3.80;;;25.30;99.90;;;;;;5027315;28;20264;-66
2023/04/30 09:34:09;;;;;;;4.32;3.90;;;25.20;99.90;;;;;;5030806;28;20244;-63
2023/04/30 09:36:36;;;;;;;4.85;3.78;;;25.40;99.90;;;;;;5031092;28;20711;-63
2023/04/30 09:39:17;;;;;;;5.07;4.63;;;25.10;99.80;;;;;;5030642;28;20203;-65
2023/04/30 09:41:42;;;;;;;5.25;4.85;;;24.70;99.90;;;;;;5030732;28;20175;-63
2023/04/30 09:44:29;;;;;;;4.78;4.38;;;24.50;99.90;;;;;;5030960;28;20175;-66
2023/04/30 09:46:56;;;;;;;4.25;3.85;;;24.60;99.90;;;;;;5031102;28;20207;-65
2023/04/30 09:49:22;;;;;;;4.95;4.55;;;24.90;99.90;;;;;;5030751;28;20246;-66
2023/04/30 09:52:08;;;;;;;4.80;4.40;;;25.20;99.90;;;;;;5030722;28;20202;-65
2023/04/30 09:54:34;;;;;;;4.57;3.47;;;25.80;99.90;;;;;;5031053;28;20241;-64
2023/04/30 09:57:01;;;;;;;4.55;4.25;;;26.60;99.90;;;;;;5034749;28;20225;-63
2023/04/30 09:59:38;;;;;;;4.60;4.32;;;26.70;99.40;;;;;;5034227;28;20523;-62
2023/04/30 10:02:07;;;;;;;4.60;4.30;;;26.60;98.40;;;;;;5034797;28;20186;-63
2023/04/30 10:04:33;;;;;;;4.32;4.03;;;26.60;98.50;;;;;;5034476;28;20187;-63
2023/04/30 10:07:04;;;;;;;4.57;4.35;;;26.60;97.70;;;;;;5034418;28;20203;-63
2023/04/30 10:09:39;;;;;;;5.85;5.45;;;26.30;97.90;;;;;;5034371;28;20210;-63
2023/04/30 10:12:12;;;;;;;4.63;4.32;;;26.10;98.90;;;;;;5034535;28;20250;-63
2023/04/30 10:14:39;;;;;;;4.35;3.78;;;25.70;99.90;;;;;;5034552;28;20190;-63
2023/04/30 10:17:13;;;;;;;4.50;4.15;;;25.70;99.10;;;;;;5034675;28;20525;-63
2023/04/30 10:19:42;;;;;;;4.10;3.90;;;25.60;98.30;;;;;;5031926;28;20211;-63
2023/04/30 10:22:09;;;;;;;3.50;3.30;;;25.20;98.50;;;;;;5034342;28;20594;-63
2023/04/30 10:24:36;;;;;;;3.85;3.65;;;24.90;98.50;;;;;;5034260;28;20183;-63
2023/04/30 10:27:02;;;;;;;3.65;3.35;;;25.30;99.90;;;;;;5034042;28;20612;-62
2023/04/30 10:29:28;;;;;;;3.38;3.17;;;25.90;99.80;;;;;;5033964;28;20191;-63
2023/04/30 10:31:54;;;;;;;3.85;3.55;;;26.40;98.70;;;;;;5033710;28;20180;-63
2023/04/30 10:34:28;;;;;;;3.58;3.30;;;27.10;98.60;;;;;;5034170;28;20164;-63
2023/04/30 10:36:59;;;;;;;3.45;3.25;;;27.30;99.70;;;;;;5033168;28;20929;-63
2023/04/30 10:39:27;;;;;;;3.92;3.65;;;27.60;97.90;;;;;;5033196;28;20196;-62
2023/04/30 10:42:08;;;;;;;4.78;4.47;;;27.40;97.00;;;;;;5033066;28;20183;-62
2023/04/30 10:44:36;;;;;;;3.97;3.78;;;27.20;96.70;;;;;;5033740;28;20172;-62
2023/04/30 10:47:05;;;;;;;4.03;3.78;;;27.30;98.80;;;;;;5033383;28;20203;-63
2023/04/30 10:49:31;;;;;;;3.60;3.40;;;27.70;96.60;;;;;;5032881;28;20298;-63
2023/04/30 10:52:02;;;;;;;4.50;4.18;;;27.50;96.00;;;;;;5031195;28;20195;-63
2023/04/30 10:54:29;;;;;;;3.70;3.47;;;27.30;96.50;;;;;;5033896;28;20361;-63
2023/04/30 10:57:19;;;;;;;6.78;6.35;;;27.20;95.70;;;;;;5032977;28;20675;-62
2023/04/30 11:00:05;;;;;;;5.38;5.07;;;26.40;96.10;;;;;;5032838;28;20195;-63
2023/04/30 11:02:42;;;;;;;4.70;4.40;;;26.40;97.80;;;;;;5033559;28;20265;-65
2023/04/30 11:05:16;;;;;;;6.53;6.13;;;26.30;96.40;;;;;;5033535;28;20171;-65
2023/04/30 11:07:50;;;;;;;6.57;6.00;;;25.90;97.00;;;;;;5032179;28;20637;-62
2023/04/30 11:10:16;;;;;;;3.63;3.42;;;25.30;96.90;;;;;;5013157;28;20541;-63
2023/04/30 11:12:50;;;;;;;4.35;4.05;;;25.00;97.90;;;;;;5031647;28;20176;-63
2023/04/30 11:15:18;;;;;;;4.35;3.70;;;24.10;96.80;;;;;;5033219;28;20168;-63
2023/04/30 11:17:45;;;;;;;3.58;3.38;;;23.30;98.50;;;;;;5032808;28;20540;-65
2023/04/30 11:20:18;;;;;;;3.55;3.35;;;23.00;99.40;;;;;;5033070;28;20318;-65
2023/04/30 11:22:45;;;;;;;3.58;3.38;;;22.80;99.90;;;;;;5032981;28;20642;-65
2023/04/30 11:25:12;;;;;;;3.42;3.22;;;23.00;99.90;;;;;;5031280;28;20187;-65
2023/04/30 11:27:45;;;;;;;3.28;3.08;;;23.50;99.90;;;;;;5032854;28;20183;-65
2023/04/30 11:30:17;;;;;;;3.25;3.05;;;24.10;99.90;;;;;;5033092;28;20179;-65
2023/04/30 11:32:46;;;;;;;2.80;2.70;;;24.60;99.60;;;;;;5033051;28;20167;-65
2023/04/30 11:35:13;;;;;;;3.03;2.83;;;25.60;98.70;;;;;;5033138;28;20763;-62
2023/04/30 11:37:44;;;;;;;3.10;2.90;;;26.40;99.90;;;;;;5032578;28;20175;-62
2023/04/30 11:40:12;;;;;;;3.30;3.10;;;27.30;97.40;;;;;;5032808;28;20174;-63
2023/04/30 11:42:40;;;;;;;3.28;3.08;;;27.80;95.60;;;;;;5032259;28;20637;-63
2023/04/30 11:45:16;;;;;;;3.00;2.88;;;27.70;93.80;;;;;;5032777;28;20195;-63
2023/04/30 11:47:49;;;;;;;3.97;3.78;;;26.90;93.20;;;;;;5032362;28;20175;-65
2023/04/30 11:50:26;;;;;;;3.08;2.97;;;25.90;93.20;;;;;;5032511;28;20541;-65
2023/04/30 11:52:52;;;;;;;3.10;2.95;;;25.10;94.30;;;;;;5032550;28;20183;-65
2023/04/30 11:55:20;;;;;;;3.10;3.00;;;25.10;97.40;;;;;;5032748;28;20202;-63
2023/04/30 11:57:48;;;;;;;3.58;3.28;;;25.70;97.20;;;;;;5030431;28;20253;-65
2023/04/30 12:00:17;;;;;;;3.35;3.25;;;26.10;94.30;;;;;;5032179;28;20542;-65
2023/04/30 12:02:45;;;;;;;4.63;4.43;;;26.30;94.70;;;;;;5032427;28;20182;-66
2023/04/30 12:05:15;;;;;;;3.80;3.60;;;26.40;93.40;;;;;;5031862;28;20187;-66
2023/04/30 12:08:03;;;;;;;4.88;4.68;;;26.50;96.80;;;;;;5031903;28;20179;-65
2023/04/30 12:10:30;;;;;;;5.20;5.00;;;26.40;96.50;;;;;;5031676;28;20238;-65
2023/04/30 12:12:55;;;;;;;3.80;3.60;;;26.20;92.20;;;;;;5032417;28;20265;-66
2023/04/30 12:15:25;;;;;;;3.42;3.20;;;26.00;94.40;;;;;;5032218;28;20612;-66
2023/04/30 12:17:53;;;;;;;3.20;3.10;;;25.60;93.20;;;;;;5031393;28;20182;-65
2023/04/30 12:20:20;;;;;;;3.10;3.00;;;25.30;93.90;;;;;;5031489;28;20180;-65
2023/04/30 12:22:47;;;;;;;3.97;3.83;;;25.70;94.20;;;;;;5032065;28;20176;-66
2023/04/30 12:25:17;;;;;;;4.03;3.83;;;26.30;92.00;;;;;;5031904;28;20237;-63
2023/04/30 12:27:48;;;;;;;3.53;3.33;;;26.60;93.60;;;;;;5031708;28;20253;-63
2023/04/30 12:30:18;;;;;;;3.05;2.95;;;26.80;91.90;;;;;;5029520;28;20269;-63
2023/04/30 12:32:45;;;;;;;4.28;4.07;;;27.10;96.00;;;;;;5031747;28;20266;-63
2023/04/30 12:35:15;;;;;;;3.08;2.88;;;26.90;91.80;;;;;;5031832;28;20203;-65
2023/04/30 12:37:44;;;;;;;5.30;4.90;;;26.20;92.00;;;;;;5031519;28;20265;-65
2023/04/30 12:40:11;;;;;;;4.45;4.25;;;25.50;91.30;;;;;;5031162;28;20176;-62
2023/04/30 12:42:36;;;;;;;3.47;3.38;;;24.60;91.10;;;;;;5031607;28;20178;-65
2023/04/30 12:45:02;;;;;;;2.80;2.70;;;24.10;94.20;;;;;;5031695;28;20175;-65